Time;durP1;ratioP1;P1;durP2;ratioP2;P2;SDS_P1;SDS_P2;PMS_P1;PMS_P2;Temp;Humidity;BMP_temperature;BMP_pressure;BME280_temperature;BME280_humidity;BME280_pressure;Samples;Min_cycle;Max_cycle;Signal;HPM_P1;HPM_P2
2024/01/12 00:00:22;;;;;;;24.65;13.60;;;;;;;0.60;43.01;102964.63;5009267;28;20046;-77
2024/01/12 00:02:50;;;;;;;24.02;13.23;;;;;;;0.60;43.28;102967.31;5027781;28;20138;-77
2024/01/12 00:05:18;;;;;;;21.38;13.00;;;;;;;0.61;43.21;102966.41;5033321;28;20464;-76
2024/01/12 00:07:48;;;;;;;22.65;12.60;;;;;;;0.62;43.39;102959.22;5034834;28;20061;-76
2024/01/12 00:10:16;;;;;;;23.48;13.48;;;;;;;0.61;43.38;102952.94;5016563;28;20041;-76
2024/01/12 00:12:44;;;;;;;24.42;13.07;;;;;;;0.61;43.13;102952.03;5033884;28;20077;-76
2024/01/12 00:15:12;;;;;;;21.98;12.63;;;;;;;0.62;43.28;102951.13;5025162;23;20057;-76
2024/01/12 00:17:40;;;;;;;26.15;13.57;;;;;;;0.62;43.24;102948.44;4986774;28;20043;-76
2024/01/12 00:20:10;;;;;;;24.50;13.45;;;;;;;0.62;43.30;102946.63;4991673;28;20109;-76
2024/01/12 00:22:38;;;;;;;21.67;13.10;;;;;;;0.61;43.30;102943.94;4987296;28;20046;-76
2024/01/12 00:25:08;;;;;;;26.17;14.38;;;;;;;0.61;44.01;102950.22;4990749;28;20136;-77
2024/01/12 00:27:36;;;;;;;23.02;12.60;;;;;;;0.61;43.30;102952.03;4989687;28;20122;-76
2024/01/12 00:30:04;;;;;;;22.35;13.73;;;;;;;0.61;43.49;102952.94;4987087;28;20038;-76
2024/01/12 00:32:32;;;;;;;22.27;13.45;;;;;;;0.61;43.28;102965.50;5001634;28;20043;-76
2024/01/12 00:35:00;;;;;;;25.00;14.10;;;;;;;0.61;43.38;102952.03;4989943;28;20038;-76
2024/01/12 00:37:28;;;;;;;24.95;13.07;;;;;;;0.61;43.49;102958.31;4981530;28;20129;-76
2024/01/12 00:39:56;;;;;;;24.65;14.00;;;;;;;0.61;43.85;102949.34;4990083;28;20065;-76
2024/01/12 00:42:25;;;;;;;25.40;13.13;;;;;;;0.63;43.99;102947.53;4988328;28;20038;-77
2024/01/12 00:44:53;;;;;;;23.98;14.10;;;;;;;0.62;43.48;102952.00;4979794;28;20097;-77
2024/01/12 00:47:21;;;;;;;23.77;13.85;;;;;;;0.62;43.61;102948.44;4988464;28;20045;-76
2024/01/12 00:49:49;;;;;;;25.88;14.25;;;;;;;0.61;43.71;102955.63;4986637;28;20482;-77
2024/01/12 00:52:17;;;;;;;24.83;14.45;;;;;;;0.62;43.76;102949.31;4988782;28;20046;-76
2024/01/12 00:54:45;;;;;;;26.88;14.25;;;;;;;0.62;43.69;102948.44;4990951;28;20042;-76
2024/01/12 00:57:13;;;;;;;22.88;12.70;;;;;;;0.63;43.74;102947.53;4985462;28;20468;-76
2024/01/12 00:59:42;;;;;;;22.33;13.30;;;;;;;0.63;44.05;102948.41;4988376;28;20047;-77
2024/01/12 01:02:10;;;;;;;27.27;14.20;;;;;;;0.63;43.89;102939.44;4986568;28;20101;-77
2024/01/12 01:04:38;;;;;;;27.33;15.25;;;;;;;0.62;43.75;102937.66;4994003;28;20133;-76
2024/01/12 01:07:06;;;;;;;26.95;14.45;;;;;;;0.62;44.04;102946.63;4989698;28;20492;-76
2024/01/12 01:09:34;;;;;;;26.35;14.18;;;;;;;0.63;43.98;102943.03;4988216;28;20070;-76
2024/01/12 01:12:02;;;;;;;27.25;14.82;;;;;;;0.64;43.79;102933.13;4984572;28;20057;-76
2024/01/12 01:14:30;;;;;;;28.00;14.05;;;;;;;0.64;44.04;102941.22;4987797;28;20597;-77
2024/01/12 01:17:00;;;;;;;24.52;13.73;;;;;;;0.65;43.91;102935.81;4987455;28;20034;-77
2024/01/12 01:19:28;;;;;;;29.15;15.27;;;;;;;0.65;44.03;102951.09;4984424;28;20050;-77
2024/01/12 01:21:56;;;;;;;29.02;15.07;;;;;;;0.65;43.98;102946.59;4985585;28;20042;-77
2024/01/12 01:24:26;;;;;;;26.20;13.93;;;;;;;0.65;44.29;102954.69;4989172;28;20070;-77
2024/01/12 01:26:55;;;;;;;29.50;15.65;;;;;;;0.65;44.02;102962.78;5005218;28;20038;-77
2024/01/12 01:29:23;;;;;;;28.17;15.38;;;;;;;0.66;43.99;102963.66;4988646;28;20081;-76
2024/01/12 01:31:51;;;;;;;28.75;15.02;;;;;;;0.66;44.20;102959.16;4982604;28;20438;-77
2024/01/12 01:34:20;;;;;;;30.27;15.80;;;;;;;0.67;44.49;102960.94;4989906;28;20038;-77
2024/01/12 01:36:48;;;;;;;28.92;15.43;;;;;;;0.67;44.25;102954.66;5004609;28;20049;-77
2024/01/12 01:39:16;;;;;;;28.80;15.43;;;;;;;0.67;44.26;102957.38;4988394;28;20505;-76
2024/01/12 01:41:44;;;;;;;31.40;16.40;;;;;;;0.67;44.11;102954.66;4989433;28;20429;-77
2024/01/12 01:44:12;;;;;;;29.55;15.52;;;;;;;0.67;44.19;102960.06;4987774;28;20331;-76
2024/01/12 01:46:40;;;;;;;29.85;16.00;;;;;;;0.68;44.38;102961.84;5000754;28;20392;-76
2024/01/12 01:49:08;;;;;;;29.23;15.90;;;;;;;0.69;44.32;102971.69;4986565;28;20039;-77
2024/01/12 01:51:38;;;;;;;27.17;14.52;;;;;;;0.69;44.55;102969.00;4984564;28;20510;-77
2024/01/12 01:54:06;;;;;;;28.42;15.27;;;;;;;0.67;44.57;102966.34;4988668;28;20605;-77
2024/01/12 01:56:36;;;;;;;29.55;15.27;;;;;;;0.70;44.31;102976.16;4990009;28;20042;-77
2024/01/12 01:59:04;;;;;;;35.05;16.40;;;;;;;0.68;44.67;102976.19;4986717;28;20054;-77
2024/01/12 02:01:32;;;;;;;33.38;16.88;;;;;;;0.69;44.32;102975.28;4998674;28;20118;-77
2024/01/12 02:04:02;;;;;;;33.92;16.85;;;;;;;0.70;44.59;102974.38;4984889;28;20109;-77
2024/01/12 02:06:30;;;;;;;33.53;18.08;;;;;;;0.70;44.49;102968.97;4987469;28;20046;-77
2024/01/12 02:09:00;;;;;;;33.20;16.55;;;;;;;0.71;44.65;102973.47;4984810;28;20046;-77
2024/01/12 02:11:28;;;;;;;35.17;17.20;;;;;;;0.70;44.36;102966.28;4984916;28;20289;-77
2024/01/12 02:13:57;;;;;;;39.05;17.58;;;;;;;0.71;44.54;102973.47;4976368;28;20135;-77
2024/01/12 02:16:25;;;;;;;36.85;17.77;;;;;;;0.72;44.48;102977.03;4985801;28;20128;-76
2024/01/12 02:18:53;;;;;;;35.70;17.95;;;;;;;0.72;44.49;102968.97;4987364;28;20058;-77
2024/01/12 02:21:22;;;;;;;37.00;16.70;;;;;;;0.73;44.88;102963.56;4987129;28;20047;-77
2024/01/12 02:23:50;;;;;;;31.58;16.38;;;;;;;0.72;44.56;102959.09;4985690;28;20046;-77
2024/01/12 02:26:18;;;;;;;33.83;17.10;;;;;;;0.72;44.86;102945.59;4987915;28;20049;-77
2024/01/12 02:28:47;;;;;;;33.80;16.83;;;;;;;0.73;44.88;102949.19;4986150;28;20129;-77
2024/01/12 02:31:16;;;;;;;31.65;16.23;;;;;;;0.74;44.99;102948.28;4986166;28;20557;-77
2024/01/12 02:33:44;;;;;;;35.83;17.40;;;;;;;0.73;44.96;102939.31;4985808;28;20385;-77
2024/01/12 02:36:12;;;;;;;37.17;17.50;;;;;;;0.74;44.74;102950.97;4985493;28;20509;-77
2024/01/12 02:38:41;;;;;;;35.00;17.75;;;;;;;0.75;44.99;102942.00;4987534;28;20046;-77
2024/01/12 02:41:09;;;;;;;32.72;16.02;;;;;;;0.75;44.93;102958.16;4983480;28;20513;-76
2024/01/12 02:43:37;;;;;;;31.23;15.38;;;;;;;0.74;44.93;102962.66;4986539;28;20516;-77
2024/01/12 02:46:05;;;;;;;37.90;17.85;;;;;;;0.74;45.03;102957.25;4977820;28;20109;-77
2024/01/12 02:48:33;;;;;;;33.67;17.38;;;;;;;0.75;44.84;102955.47;4984903;28;20092;-76
2024/01/12 02:51:01;;;;;;;33.47;16.65;;;;;;;0.76;44.94;102950.97;4981469;28;20042;-77
2024/01/12 02:53:29;;;;;;;36.08;16.90;;;;;;;0.76;44.96;102948.28;4985418;28;20042;-77
2024/01/12 02:55:59;;;;;;;33.80;16.85;;;;;;;0.77;45.35;102942.81;4983738;28;20052;-77
2024/01/12 02:58:27;;;;;;;36.47;17.15;;;;;;;0.76;45.28;102943.78;4984349;28;20106;-77
2024/01/12 03:00:55;;;;;;;34.85;17.33;;;;;;;0.77;45.09;102941.94;4983975;28;20113;-77
2024/01/12 03:03:23;;;;;;;33.35;15.70;;;;;;;0.76;45.31;102946.47;4986423;28;20054;-76
2024/01/12 03:05:51;;;;;;;28.33;15.93;;;;;;;0.77;45.12;102941.94;4987788;28;20038;-77
2024/01/12 03:08:19;;;;;;;33.80;17.23;;;;;;;0.77;45.17;102948.22;4986292;28;20342;-77
2024/01/12 03:10:47;;;;;;;31.67;16.33;;;;;;;0.78;45.38;102949.13;4982294;28;20409;-77
2024/01/12 03:13:16;;;;;;;34.75;17.67;;;;;;;0.78;45.28;102941.03;4986133;28;20106;-77
2024/01/12 03:15:44;;;;;;;35.35;17.75;;;;;;;0.77;45.33;102936.53;4984864;28;20042;-77
2024/01/12 03:18:12;;;;;;;36.97;17.70;;;;;;;0.77;45.24;102933.84;4987438;28;20071;-77
2024/01/12 03:20:40;;;;;;;34.58;17.23;;;;;;;0.76;45.24;102941.06;4979670;28;20522;-77
2024/01/12 03:23:08;;;;;;;32.38;16.67;;;;;;;0.77;45.30;102933.84;4985173;28;20057;-77
2024/01/12 03:25:36;;;;;;;32.33;16.88;;;;;;;0.77;45.46;102933.84;4985318;28;20474;-77
2024/01/12 03:28:05;;;;;;;35.55;16.75;;;;;;;0.77;45.28;102932.06;4988079;28;20469;-77
2024/01/12 03:30:34;;;;;;;33.03;16.48;;;;;;;0.78;45.51;102922.16;4996860;28;20502;-77
2024/01/12 03:33:03;;;;;;;33.05;16.52;;;;;;;0.77;45.47;102926.66;4987604;28;20061;-77
2024/01/12 03:35:32;;;;;;;32.22;16.77;;;;;;;0.77;45.38;102921.28;4985644;28;20053;-77
2024/01/12 03:38:00;;;;;;;32.08;15.77;;;;;;;0.77;45.53;102925.75;4984505;28;20058;-77
2024/01/12 03:40:29;;;;;;;32.25;15.30;;;;;;;0.78;45.46;102920.34;4985823;28;20112;-77
2024/01/12 03:42:57;;;;;;;31.95;15.85;;;;;;;0.79;45.36;102923.94;4984726;28;20109;-77
2024/01/12 03:45:24;;;;;;;29.15;14.45;;;;;;;0.79;45.44;102923.94;4984412;28;20072;-77
2024/01/12 03:47:54;;;;;;;32.58;16.08;;;;;;;0.80;45.71;102923.03;4985509;28;20110;-77
2024/01/12 03:50:22;;;;;;;31.52;15.93;;;;;;;0.80;45.44;102923.94;4985976;28;20435;-77
2024/01/12 03:52:50;;;;;;;33.63;16.90;;;;;;;0.80;45.51;102923.03;4984842;28;20098;-77
2024/01/12 03:55:18;;;;;;;38.03;17.35;;;;;;;0.81;45.50;102924.81;4985041;28;20042;-77
2024/01/12 03:57:45;;;;;;;36.15;16.80;;;;;;;0.81;45.36;102916.75;4987014;28;20078;-77
2024/01/12 04:00:14;;;;;;;37.40;17.98;;;;;;;0.81;45.64;102923.03;4984075;28;20176;-77
2024/01/12 04:02:42;;;;;;;38.58;17.25;;;;;;;0.81;45.49;102919.44;5000806;28;20862;-77
2024/01/12 04:05:12;;;;;;;35.88;17.90;;;;;;;0.82;45.90;102918.53;4985735;28;20502;-77
2024/01/12 04:07:40;;;;;;;35.28;16.35;;;;;;;0.80;45.95;102907.75;4988191;28;20042;-77
2024/01/12 04:10:08;;;;;;;32.13;15.75;;;;;;;0.81;45.71;102911.34;4983180;28;20097;-76
2024/01/12 04:12:38;;;;;;;31.92;16.08;;;;;;;0.82;45.86;102910.44;4986179;28;20093;-76
2024/01/12 04:15:08;;;;;;;31.30;15.57;;;;;;;0.83;45.95;102917.63;4981896;28;20051;-76
2024/01/12 04:17:37;;;;;;;29.25;14.48;;;;;;;0.81;45.72;102916.75;4986012;28;20129;-76
2024/01/12 04:20:05;;;;;;;32.92;15.68;;;;;;;0.81;45.97;102909.56;4984879;28;20454;-77
2024/01/12 04:22:35;;;;;;;31.85;15.05;;;;;;;0.83;45.98;102905.03;4986344;28;20321;-77
2024/01/12 04:25:03;;;;;;;33.28;15.30;;;;;;;0.83;45.89;102906.84;4986505;28;20042;-77
2024/01/12 04:27:31;;;;;;;32.03;14.43;;;;;;;0.83;45.93;102918.50;4987800;28;20042;-77
2024/01/12 04:29:59;;;;;;;30.20;14.32;;;;;;;0.83;45.92;102918.50;4983352;28;20046;-77
2024/01/12 04:32:28;;;;;;;37.15;15.93;;;;;;;0.83;45.83;102914.94;4986734;28;20042;-76
2024/01/12 04:34:56;;;;;;;34.90;16.13;;;;;;;0.84;45.82;102922.09;4986232;28;20039;-77
2024/01/12 04:37:24;;;;;;;33.28;15.35;;;;;;;0.83;45.73;102920.31;4986334;28;20053;-77
2024/01/12 04:39:53;;;;;;;39.63;16.63;;;;;;;0.83;45.92;102913.13;4980968;28;20533;-76
2024/01/12 04:42:21;;;;;;;39.03;16.77;;;;;;;0.83;46.04;102909.53;5004746;28;20086;-76
2024/01/12 04:44:48;;;;;;;37.50;17.15;;;;;;;0.82;46.12;102910.44;4991033;28;20117;-77
2024/01/12 04:47:17;;;;;;;42.03;17.33;;;;;;;0.81;46.28;102906.84;4989183;28;20050;-76
2024/01/12 04:49:45;;;;;;;38.15;17.95;;;;;;;0.80;45.94;102899.69;4989842;28;20483;-77
2024/01/12 04:52:13;;;;;;;35.13;16.42;;;;;;;0.80;45.90;102905.06;4988317;28;20069;-77
2024/01/12 04:54:41;;;;;;;39.60;17.85;;;;;;;0.79;45.98;102900.59;4986361;28;20570;-76
2024/01/12 04:57:10;;;;;;;35.97;17.38;;;;;;;0.80;46.49;102888.91;4990106;28;20057;-76
2024/01/12 04:59:38;;;;;;;37.55;17.17;;;;;;;0.79;46.28;102888.91;4988710;28;20097;-77
2024/01/12 05:02:07;;;;;;;43.42;18.38;;;;;;;0.79;46.01;102899.69;4989327;28;20050;-76
2024/01/12 05:04:35;;;;;;;40.28;18.00;;;;;;;0.79;46.35;102889.81;4988237;28;20039;-76
2024/01/12 05:07:03;;;;;;;39.65;17.80;;;;;;;0.79;46.24;102902.38;4990015;28;20061;-77
2024/01/12 05:09:31;;;;;;;41.97;18.40;;;;;;;0.78;46.34;102897.91;4987239;28;20635;-76
2024/01/12 05:12:04;;;;;;;44.28;18.90;;;;;;;0.77;46.21;102904.19;4981230;28;20272;-76
2024/01/12 05:14:34;;;;;;;35.80;17.08;;;;;;;0.77;46.40;102896.13;4990609;28;20435;-76
2024/01/12 05:17:02;;;;;;;39.58;17.42;;;;;;;0.76;46.34;102891.66;4996695;28;20042;-78
2024/01/12 05:19:30;;;;;;;37.55;17.05;;;;;;;0.76;46.46;102888.97;4995925;28;20081;-77
2024/01/12 05:21:58;;;;;;;39.97;17.83;;;;;;;0.76;46.52;102881.78;4995915;28;20114;-78
2024/01/12 05:24:25;;;;;;;38.58;16.92;;;;;;;0.77;46.41;102885.34;5011412;28;20198;-77
2024/01/12 05:26:54;;;;;;;37.92;17.30;;;;;;;0.76;46.33;102886.28;4994916;28;20081;-77
2024/01/12 05:29:22;;;;;;;37.70;16.63;;;;;;;0.76;46.40;102887.19;5010787;28;20050;-77
2024/01/12 05:31:51;;;;;;;45.08;17.45;;;;;;;0.77;46.65;102897.00;4996266;28;20042;-78
2024/01/12 05:34:19;;;;;;;44.25;17.98;;;;;;;0.77;46.34;102891.63;4994657;28;20108;-77
2024/01/12 05:36:47;;;;;;;45.00;18.60;;;;;;;0.77;46.40;102897.00;4996518;28;20060;-77
2024/01/12 05:39:16;;;;;;;42.75;18.23;;;;;;;0.77;46.37;102904.19;4995999;28;20050;-77
2024/01/12 05:41:43;;;;;;;42.28;17.92;;;;;;;0.78;46.52;102903.28;4992600;28;20345;-76
2024/01/12 05:44:12;;;;;;;42.67;18.35;;;;;;;0.78;46.70;102903.28;4989020;28;20050;-76
2024/01/12 05:46:41;;;;;;;45.28;18.38;;;;;;;0.78;46.60;102909.56;4990772;28;20066;-76
2024/01/12 05:49:10;;;;;;;42.20;18.38;;;;;;;0.79;46.74;102915.88;4987557;28;20042;-75
2024/01/12 05:51:38;;;;;;;40.88;17.60;;;;;;;0.78;46.44;102919.47;4987833;28;20137;-76
2024/01/12 05:54:06;;;;;;;41.83;19.63;;;;;;;0.77;46.73;102915.88;4990798;28;20042;-76
2024/01/12 05:56:34;;;;;;;39.15;17.58;;;;;;;0.77;46.81;102918.56;4986428;28;20106;-77
2024/01/12 05:59:02;;;;;;;41.38;17.70;;;;;;;0.77;46.80;102925.75;4991429;28;20038;-76
2024/01/12 06:01:31;;;;;;;46.35;18.10;;;;;;;0.77;46.70;102917.69;4989790;28;20042;-76
2024/01/12 06:03:59;;;;;;;39.38;17.33;;;;;;;0.77;46.96;102914.97;4985896;28;20054;-74
2024/01/12 06:06:29;;;;;;;42.67;18.48;;;;;;;0.79;47.04;102918.56;4991125;28;20156;-77
2024/01/12 06:08:57;;;;;;;37.65;17.85;;;;;;;0.77;46.89;102923.06;5006135;28;20042;-77
2024/01/12 06:11:25;;;;;;;39.50;17.52;;;;;;;0.77;46.79;102926.66;4990036;28;20367;-76
2024/01/12 06:13:53;;;;;;;38.03;16.88;;;;;;;0.78;46.84;102930.25;4987072;28;20038;-76
2024/01/12 06:16:20;;;;;;;38.15;17.05;;;;;;;0.78;47.04;102932.94;4987008;28;20418;-75
2024/01/12 06:18:48;;;;;;;34.75;15.77;;;;;;;0.77;46.81;102934.75;5004865;28;20050;-76
2024/01/12 06:21:16;;;;;;;40.05;16.83;;;;;;;0.77;46.95;102933.84;5002351;28;20517;-75
2024/01/12 06:23:46;;;;;;;34.92;15.68;;;;;;;0.78;47.15;102939.22;4988916;28;20046;-76
2024/01/12 06:26:14;;;;;;;36.83;16.02;;;;;;;0.78;46.87;102925.75;4988965;28;20395;-74
2024/01/12 06:28:42;;;;;;;33.42;14.60;;;;;;;0.79;46.85;102926.66;4986054;28;20065;-75
2024/01/12 06:31:10;;;;;;;33.33;15.75;;;;;;;0.80;46.97;102934.72;4985346;28;20050;-76
2024/01/12 06:33:38;;;;;;;36.50;15.98;;;;;;;0.80;46.75;102929.31;4988757;28;20050;-76
2024/01/12 06:36:06;;;;;;;35.92;15.52;;;;;;;0.81;46.94;102922.13;4988861;28;20101;-77
2024/01/12 06:38:35;;;;;;;35.30;15.07;;;;;;;0.81;47.05;102925.72;4989779;28;20042;-77
2024/01/12 06:41:04;;;;;;;34.08;15.30;;;;;;;0.83;47.36;102923.00;4985715;28;20556;-76
2024/01/12 06:43:32;;;;;;;35.50;15.45;;;;;;;0.81;47.00;102908.66;4990384;28;20429;-76
2024/01/12 06:46:00;;;;;;;28.13;13.98;;;;;;;0.81;46.83;102917.63;4989346;28;20505;-77
2024/01/12 06:48:28;;;;;;;34.25;14.25;;;;;;;0.82;47.08;102915.84;4987493;28;20136;-77
2024/01/12 06:50:56;;;;;;;28.85;14.43;;;;;;;0.81;46.92;102914.03;4988184;28;20042;-77
2024/01/12 06:53:24;;;;;;;32.00;13.98;;;;;;;0.82;47.06;102921.22;4990939;28;20039;-77
2024/01/12 06:55:52;;;;;;;31.33;14.10;;;;;;;0.81;47.08;102914.94;4988489;28;20070;-77
2024/01/12 06:58:23;;;;;;;31.65;13.43;;;;;;;0.83;47.66;102914.94;4990309;28;20069;-77
2024/01/12 07:00:51;;;;;;;28.10;13.43;;;;;;;0.81;47.39;102912.25;4986863;28;20042;-77
2024/01/12 07:03:19;;;;;;;27.52;13.05;;;;;;;0.81;47.28;102909.56;4985027;28;20399;-75
2024/01/12 07:05:47;;;;;;;28.80;12.05;;;;;;;0.83;47.18;102918.50;4988193;28;20133;-76
2024/01/12 07:08:16;;;;;;;25.25;11.85;;;;;;;0.85;47.11;102913.09;4985283;28;20121;-73
2024/01/12 07:10:45;;;;;;;27.80;12.15;;;;;;;0.84;47.38;102911.31;4983455;28;20046;-76
2024/01/12 07:13:13;;;;;;;24.63;11.63;;;;;;;0.85;47.29;102905.88;4987910;28;20069;-76
2024/01/12 07:15:43;;;;;;;30.17;12.02;;;;;;;0.87;47.34;102903.16;4986299;28;20045;-76
2024/01/12 07:18:10;;;;;;;27.95;11.27;;;;;;;0.87;47.23;102898.66;4985555;28;20133;-73
2024/01/12 07:20:39;;;;;;;24.95;11.65;;;;;;;0.88;47.42;102896.91;4986536;28;20392;-76
2024/01/12 07:23:07;;;;;;;25.65;11.82;;;;;;;0.89;47.61;102904.06;4989168;28;20573;-76
2024/01/12 07:25:37;;;;;;;26.67;11.63;;;;;;;0.90;47.52;102903.16;4977677;28;22608;-76
2024/01/12 07:28:05;;;;;;;27.02;11.10;;;;;;;0.89;47.41;102902.28;4980582;28;20065;-76
2024/01/12 07:30:36;;;;;;;29.83;12.63;;;;;;;0.90;47.42;102900.47;4984168;28;20514;-75
2024/01/12 07:33:05;;;;;;;23.67;10.82;;;;;;;0.92;47.53;102904.03;4986236;28;20061;-76
2024/01/12 07:35:34;;;;;;;24.70;10.63;;;;;;;0.91;47.38;102904.94;4983413;28;20046;-76
2024/01/12 07:38:02;;;;;;;23.77;11.38;;;;;;;0.93;47.39;102908.53;4987736;28;20118;-75
2024/01/12 07:40:29;;;;;;;23.70;10.02;;;;;;;0.92;47.39;102910.31;4979456;28;20109;-75
2024/01/12 07:42:57;;;;;;;21.73;10.88;;;;;;;0.92;47.50;102923.81;4991401;28;20481;-75
2024/01/12 07:45:25;;;;;;;24.98;11.27;;;;;;;0.92;47.25;102918.41;4986517;28;20078;-76
2024/01/12 07:47:53;;;;;;;24.08;11.13;;;;;;;0.94;47.28;102923.75;4987811;28;20051;-73
2024/01/12 07:50:23;;;;;;;20.98;10.05;;;;;;;0.94;47.64;102919.25;4979469;28;20058;-76
2024/01/12 07:52:50;;;;;;;23.23;10.00;;;;;;;0.94;47.75;102916.56;4986086;28;20045;-76
2024/01/12 07:55:18;;;;;;;22.65;10.05;;;;;;;0.94;47.45;102915.66;4986790;28;20474;-76
2024/01/12 07:57:46;;;;;;;26.52;10.27;;;;;;;0.94;47.61;102919.25;4986303;28;20046;-76
2024/01/12 08:00:15;;;;;;;22.05;9.35;;;;;;;0.95;47.51;102920.16;4985971;28;20054;-77
2024/01/12 08:02:43;;;;;;;21.20;9.63;;;;;;;0.94;47.49;102927.34;4986867;28;20058;-77
2024/01/12 08:05:11;;;;;;;18.20;9.07;;;;;;;0.95;47.66;102931.84;4989547;28;20117;-77
2024/01/12 08:07:40;;;;;;;18.15;8.18;;;;;;;0.96;47.72;102928.22;4984554;28;20133;-78
2024/01/12 08:10:09;;;;;;;15.93;7.78;;;;;;;0.96;47.48;102938.13;4989505;28;20589;-77
2024/01/12 08:12:37;;;;;;;16.20;7.57;;;;;;;0.96;47.56;102932.72;4986413;28;20121;-78
2024/01/12 08:15:08;;;;;;;16.60;7.78;;;;;;;0.96;47.70;102939.00;4988691;28;20046;-78
2024/01/12 08:17:36;;;;;;;16.40;7.47;;;;;;;0.94;47.59;102931.84;4996134;28;20053;-77
2024/01/12 08:20:05;;;;;;;15.73;7.35;;;;;;;0.94;47.82;102938.13;4996305;28;20272;-78
2024/01/12 08:22:33;;;;;;;15.43;7.32;;;;;;;0.95;47.60;102933.63;4996728;28;20441;-78
2024/01/12 08:25:03;;;;;;;15.40;7.63;;;;;;;0.95;47.73;102939.91;4997766;28;20070;-77
2024/01/12 08:27:31;;;;;;;15.45;6.70;;;;;;;0.94;47.64;102930.03;4998120;28;20064;-77
2024/01/12 08:29:59;;;;;;;17.15;7.90;;;;;;;0.96;47.76;102935.41;5000140;28;20046;-77
2024/01/12 08:32:27;;;;;;;16.73;7.55;;;;;;;0.96;47.67;102935.41;4999363;28;20215;-77
2024/01/12 08:34:55;;;;;;;20.45;9.27;;;;;;;0.95;47.90;102934.53;4997684;28;20449;-77
2024/01/12 08:37:23;;;;;;;19.42;8.77;;;;;;;0.97;47.71;102931.81;4996360;28;20042;-77
2024/01/12 08:39:52;;;;;;;20.67;9.13;;;;;;;0.96;47.89;102928.22;4996440;28;20585;-77
2024/01/12 08:42:21;;;;;;;19.80;9.20;;;;;;;0.98;48.04;102941.69;4995592;28;20509;-77
2024/01/12 08:44:49;;;;;;;18.67;8.57;;;;;;;0.96;47.82;102936.31;4997629;28;20097;-77
2024/01/12 08:47:19;;;;;;;21.67;9.68;;;;;;;0.98;47.71;102939.88;4997124;28;20050;-78
2024/01/12 08:49:47;;;;;;;20.15;9.10;;;;;;;0.98;47.78;102936.28;4996289;28;20077;-78
2024/01/12 08:52:15;;;;;;;20.48;10.02;;;;;;;0.98;47.88;102929.09;4995991;28;20039;-77
2024/01/12 08:54:43;;;;;;;24.65;10.80;;;;;;;0.98;47.97;102934.50;4993556;28;20544;-77
2024/01/12 08:57:11;;;;;;;24.92;11.65;;;;;;;0.99;47.71;102941.66;4995637;28;20473;-78
2024/01/12 08:59:40;;;;;;;22.58;10.30;;;;;;;1.00;48.27;102947.97;4997414;28;20038;-77
2024/01/12 09:02:08;;;;;;;22.13;10.45;;;;;;;0.99;47.89;102944.38;4999876;28;20513;-78
2024/01/12 09:04:36;;;;;;;22.83;10.23;;;;;;;0.99;47.87;102936.28;5000946;28;20066;-78
2024/01/12 09:07:06;;;;;;;22.17;10.02;;;;;;;0.99;48.03;102930.00;4997057;28;20050;-78
2024/01/12 09:09:34;;;;;;;22.73;10.00;;;;;;;1.00;48.13;102937.16;4999904;28;20042;-78
2024/01/12 09:12:02;;;;;;;21.60;10.50;;;;;;;0.99;48.11;102940.78;4999899;28;20046;-78
2024/01/12 09:14:31;;;;;;;20.65;9.50;;;;;;;1.00;47.79;102942.56;4994894;28;20048;-78
2024/01/12 09:17:00;;;;;;;22.38;10.10;;;;;;;0.98;48.19;102939.88;4991568;28;20498;-78
2024/01/12 09:19:28;;;;;;;20.05;9.57;;;;;;;0.98;48.18;102939.88;4993269;28;20077;-78
2024/01/12 09:21:56;;;;;;;23.92;10.65;;;;;;;0.98;48.39;102947.97;4993896;28;20038;-78
2024/01/12 09:24:23;;;;;;;22.48;10.05;;;;;;;0.99;48.07;102941.66;4994668;28;20109;-79
2024/01/12 09:26:51;;;;;;;26.30;11.68;;;;;;;0.98;48.42;102944.38;4994812;28;20118;-77
2024/01/12 09:29:19;;;;;;;23.35;10.52;;;;;;;0.98;48.27;102941.69;4993477;28;20054;-78
2024/01/12 09:31:47;;;;;;;19.77;10.02;;;;;;;0.97;48.11;102934.50;4991203;28;20043;-78
2024/01/12 09:34:17;;;;;;;21.23;10.00;;;;;;;0.97;48.35;102930.00;4993043;28;20070;-78
2024/01/12 09:36:45;;;;;;;22.25;10.77;;;;;;;0.97;48.25;102926.41;4994245;28;20040;-77
2024/01/12 09:39:14;;;;;;;21.55;9.88;;;;;;;0.95;48.17;102934.53;4993050;28;20053;-77
2024/01/12 09:41:46;;;;;;;23.80;10.10;;;;;;;0.97;48.66;102940.78;4994351;28;20053;-78
2024/01/12 09:44:18;;;;;;;26.35;11.57;;;;;;;0.97;48.44;102942.59;4996136;28;20088;-77
2024/01/12 09:46:55;;;;;;;25.03;11.50;;;;;;;0.96;49.37;102939.00;4999539;28;20046;-78
2024/01/12 09:49:28;;;;;;;27.50;11.57;;;;;;;0.96;48.83;102936.31;4995463;28;20292;-78
2024/01/12 09:51:56;;;;;;;27.08;13.25;;;;;;;0.96;48.33;102947.09;4993030;28;20046;-78
2024/01/12 09:54:24;;;;;;;28.73;13.10;;;;;;;0.99;48.27;102954.25;4993094;28;20534;-78
2024/01/12 09:56:53;;;;;;;27.63;12.60;;;;;;;0.99;48.61;102952.47;4995074;28;20586;-78
2024/01/12 09:59:23;;;;;;;29.45;13.07;;;;;;;1.02;48.56;102954.19;4994362;28;20046;-77
2024/01/12 10:01:52;;;;;;;29.13;12.60;;;;;;;1.01;48.29;102956.00;4998246;28;20141;-77
2024/01/12 10:04:20;;;;;;;32.33;14.07;;;;;;;1.02;48.61;102951.50;4993198;28;20077;-78
2024/01/12 10:06:49;;;;;;;30.58;14.10;;;;;;;1.03;48.82;102948.78;4996984;28;20050;-78
2024/01/12 10:09:18;;;;;;;30.63;13.63;;;;;;;1.03;48.69;102947.91;4995108;28;20109;-78
2024/01/12 10:11:46;;;;;;;30.83;13.68;;;;;;;1.04;48.55;102957.78;4991705;28;20052;-78
2024/01/12 10:14:20;;;;;;;34.60;14.88;;;;;;;1.07;49.38;102949.66;4950973;28;1162324;-77
2024/01/12 10:16:55;;;;;;;28.75;13.30;;;;;;;1.08;49.50;102949.63;5009406;28;20050;-77
2024/01/12 10:19:24;;;;;;;27.77;13.50;;;;;;;1.05;48.77;102956.84;4989982;28;20044;-77
2024/01/12 10:21:53;;;;;;;36.00;15.32;;;;;;;1.07;48.81;102947.84;4991822;28;20569;-77
2024/01/12 10:24:22;;;;;;;34.30;13.73;;;;;;;1.07;48.57;102950.53;4986060;28;20047;-77
2024/01/12 10:26:51;;;;;;;29.42;13.88;;;;;;;1.08;48.36;102948.75;4989790;28;20506;-77
2024/01/12 10:29:19;;;;;;;31.42;13.88;;;;;;;1.09;48.60;102945.13;4990134;28;20069;-77
2024/01/12 10:31:48;;;;;;;30.30;13.55;;;;;;;1.08;48.72;102936.16;4991148;28;20038;-77
2024/01/12 10:34:16;;;;;;;28.55;13.18;;;;;;;1.09;48.88;102935.19;4990833;28;20062;-77
2024/01/12 10:36:50;;;;;;;30.92;13.82;;;;;;;1.11;49.37;102927.09;4988732;28;20421;-77
2024/01/12 10:39:22;;;;;;;32.08;14.48;;;;;;;1.11;48.83;102927.09;4987719;28;20054;-77
2024/01/12 10:41:52;;;;;;;29.38;13.90;;;;;;;1.12;48.86;102931.59;4990412;28;20038;-78
2024/01/12 10:44:22;;;;;;;27.88;13.88;;;;;;;1.13;48.94;102936.06;4990704;28;20042;-77
2024/01/12 10:46:53;;;;;;;32.28;15.13;;;;;;;1.13;48.73;102937.88;4992168;28;20371;-78
2024/01/12 10:49:26;;;;;;;29.63;14.20;;;;;;;1.13;48.67;102932.47;4988304;28;20395;-77
2024/01/12 10:52:01;;;;;;;32.95;14.93;;;;;;;1.14;49.18;102926.16;4988548;28;20034;-78
2024/01/12 10:54:41;;;;;;;30.25;15.13;;;;;;;1.15;49.39;102931.53;4993675;28;20533;-77
2024/01/12 10:57:10;;;;;;;34.42;14.82;;;;;;;1.14;48.86;102923.47;4992520;28;20357;-77
2024/01/12 10:59:38;;;;;;;34.92;16.33;;;;;;;1.15;48.75;102911.78;4990562;28;20049;-78
2024/01/12 11:02:10;;;;;;;35.50;16.83;;;;;;;1.17;49.29;102926.13;4995560;28;20057;-78
2024/01/12 11:04:39;;;;;;;34.00;15.87;;;;;;;1.13;48.70;102909.09;4991283;28;20053;-77
2024/01/12 11:07:07;;;;;;;35.65;16.63;;;;;;;1.16;48.53;102908.16;4992895;28;20053;-78
2024/01/12 11:09:37;;;;;;;32.78;15.77;;;;;;;1.16;48.96;102911.75;4990657;28;20414;-77
2024/01/12 11:12:08;;;;;;;35.17;16.50;;;;;;;1.19;48.90;102909.00;4992227;28;20473;-78
2024/01/12 11:14:38;;;;;;;39.30;17.98;;;;;;;1.17;48.67;102902.75;4992786;28;20077;-78
2024/01/12 11:17:06;;;;;;;35.25;16.85;;;;;;;1.16;48.75;102898.28;4983423;28;20102;-78
2024/01/12 11:19:34;;;;;;;36.80;18.75;;;;;;;1.18;48.69;102906.34;4991937;28;20046;-77
2024/01/12 11:22:06;;;;;;;36.35;17.20;;;;;;;1.18;48.80;102909.91;4981637;28;20134;-77